createdAt,value
2023-03-26T00:01:05.851Z,1.30
2023-03-26T00:03:34.477Z,1.13
2023-03-26T00:06:07.523Z,1.48
2023-03-26T00:08:35.769Z,1.23
2023-03-26T00:11:03.881Z,1.20
2023-03-26T00:13:30.714Z,1.35
2023-03-26T00:15:57.491Z,1.40
2023-03-26T00:18:30.200Z,1.30
2023-03-26T00:20:58.183Z,1.42
2023-03-26T00:23:25.845Z,1.13
2023-03-26T00:25:53.639Z,0.95
2023-03-26T00:28:22.252Z,0.82
2023-03-26T00:31:01.891Z,1.02
2023-03-26T00:33:29.269Z,1.27
2023-03-26T00:35:58.817Z,1.10
2023-03-26T00:38:27.651Z,1.10
2023-03-26T00:40:56.410Z,1.00
2023-03-26T00:43:23.775Z,1.05
2023-03-26T00:45:54.202Z,1.08
2023-03-26T00:48:31.300Z,1.17
2023-03-26T00:51:01.436Z,1.08
2023-03-26T00:53:28.207Z,1.15
2023-03-26T00:56:00.343Z,1.20
2023-03-26T00:58:27.502Z,1.20
2023-03-26T01:00:57.817Z,1.10
2023-03-26T01:03:31.657Z,1.27
2023-03-26T01:06:02.699Z,1.95
2023-03-26T01:08:33.122Z,1.25
2023-03-26T01:11:26.247Z,1.42
2023-03-26T01:13:57.774Z,1.50
2023-03-26T01:16:39.616Z,1.23
2023-03-26T01:19:10.304Z,1.05
2023-03-26T01:21:38.763Z,1.60
2023-03-26T01:24:10.393Z,1.45
2023-03-26T01:26:40.650Z,1.60
2023-03-26T01:29:18.844Z,1.48
2023-03-26T01:31:51.684Z,1.50
2023-03-26T01:34:35.074Z,1.33
2023-03-26T01:37:06.782Z,1.95
2023-03-26T01:39:41.704Z,1.35
2023-03-26T01:42:15.501Z,1.50
2023-03-26T01:44:51.578Z,1.55
2023-03-26T01:47:19.468Z,1.77
2023-03-26T01:49:46.413Z,1.30
2023-03-26T01:52:17.529Z,1.75
2023-03-26T01:54:46.773Z,1.40
2023-03-26T01:57:25.587Z,1.17
2023-03-26T01:59:59.475Z,0.98
2023-03-26T02:02:44.178Z,1.40
2023-03-26T02:05:16.908Z,1.38
2023-03-26T02:07:52.105Z,1.33
2023-03-26T02:10:30.103Z,1.33
2023-03-26T02:12:58.373Z,1.55
2023-03-26T02:15:25.733Z,2.17
2023-03-26T02:17:53.338Z,1.17
2023-03-26T02:20:21.233Z,1.10
2023-03-26T02:22:48.352Z,1.38
2023-03-26T02:25:18.879Z,1.38
2023-03-26T02:27:46.486Z,1.23
2023-03-26T02:30:20.761Z,1.55
2023-03-26T02:32:47.610Z,1.40
2023-03-26T02:35:14.507Z,1.30
2023-03-26T02:37:46.828Z,1.50
2023-03-26T02:40:14.093Z,1.65
2023-03-26T02:42:40.854Z,1.27
2023-03-26T02:45:07.942Z,1.17
2023-03-26T02:47:34.812Z,1.20
2023-03-26T02:50:03.724Z,1.15
2023-03-26T02:52:30.880Z,1.02
2023-03-26T02:54:57.917Z,0.90
2023-03-26T02:57:25.618Z,1.00
2023-03-26T02:59:52.957Z,1.35
2023-03-26T03:02:20.382Z,0.98
2023-03-26T03:04:47.235Z,1.13
2023-03-26T03:07:17.063Z,1.23
2023-03-26T03:09:43.854Z,1.00
2023-03-26T03:12:11.181Z,1.33
2023-03-26T03:14:37.979Z,0.90
2023-03-26T03:17:04.884Z,1.02
2023-03-26T03:19:31.680Z,0.93
2023-03-26T03:21:58.480Z,0.88
2023-03-26T03:24:27.060Z,0.90
2023-03-26T03:26:56.885Z,0.70
2023-03-26T03:29:23.990Z,0.80
2023-03-26T03:31:50.914Z,0.80
2023-03-26T03:34:18.076Z,0.60
2023-03-26T03:36:48.685Z,0.80
2023-03-26T03:39:15.918Z,0.70
2023-03-26T03:41:42.732Z,1.92
2023-03-26T03:44:09.592Z,0.85
2023-03-26T03:46:36.577Z,1.52
2023-03-26T03:49:03.758Z,0.88
2023-03-26T03:51:31.264Z,1.05
2023-03-26T03:53:58.205Z,0.68
2023-03-26T03:56:26.201Z,0.60
2023-03-26T03:58:53.478Z,0.73
2023-03-26T04:01:22.801Z,0.38
2023-03-26T04:03:49.933Z,0.40
2023-03-26T04:06:20.094Z,0.50
2023-03-26T04:08:47.002Z,0.40
2023-03-26T04:11:14.588Z,0.73
2023-03-26T04:13:41.455Z,0.52
2023-03-26T04:16:08.826Z,0.55
2023-03-26T04:18:37.505Z,0.50
2023-03-26T04:21:05.367Z,0.43
2023-03-26T04:23:32.384Z,0.28
2023-03-26T04:26:04.066Z,0.43
2023-03-26T04:28:54.352Z,0.30
2023-03-26T04:31:24.246Z,0.43
2023-03-26T04:33:55.292Z,0.28
2023-03-26T04:36:29.849Z,0.30
2023-03-26T04:38:58.613Z,0.47
2023-03-26T04:41:26.383Z,0.30
2023-03-26T04:43:53.938Z,0.50
2023-03-26T04:46:24.554Z,0.60
2023-03-26T04:48:52.256Z,0.40
2023-03-26T04:51:24.384Z,0.35
2023-03-26T04:54:00.031Z,0.40
2023-03-26T04:56:26.741Z,0.40
2023-03-26T04:59:00.449Z,0.40
2023-03-26T05:01:31.106Z,0.35
2023-03-26T05:04:01.953Z,0.32
2023-03-26T05:06:30.319Z,0.20
2023-03-26T05:08:57.132Z,0.30
2023-03-26T05:11:23.908Z,0.22
2023-03-26T05:13:50.791Z,0.30
2023-03-26T05:16:17.707Z,0.30
2023-03-26T05:18:44.513Z,0.30
2023-03-26T05:21:11.323Z,0.40
2023-03-26T05:23:38.170Z,0.30
2023-03-26T05:26:05.111Z,0.25
2023-03-26T05:28:31.830Z,0.30
2023-03-26T05:30:58.597Z,0.40
2023-03-26T05:33:25.921Z,0.60
2023-03-26T05:36:04.482Z,1.10
2023-03-26T05:38:31.627Z,0.45
2023-03-26T05:40:59.800Z,0.50
2023-03-26T05:43:27.089Z,0.95
2023-03-26T05:45:54.176Z,0.50
2023-03-26T05:48:21.738Z,0.40
2023-03-26T05:50:58.716Z,0.40
2023-03-26T05:53:27.177Z,0.50
2023-03-26T05:56:00.849Z,0.30
2023-03-26T05:58:30.674Z,0.38
2023-03-26T06:01:06.264Z,0.30
2023-03-26T06:03:34.419Z,0.35
2023-03-26T06:06:01.694Z,0.40
2023-03-26T06:08:29.324Z,0.60
2023-03-26T06:11:04.855Z,0.98
2023-03-26T06:13:31.655Z,0.90
2023-03-26T06:15:58.408Z,1.00
2023-03-26T06:18:26.461Z,0.45
2023-03-26T06:20:53.522Z,0.88
2023-03-26T06:23:20.575Z,0.50
2023-03-26T06:25:47.853Z,0.40
2023-03-26T06:28:15.416Z,0.30
2023-03-26T06:30:42.576Z,0.40
2023-03-26T06:33:09.651Z,0.35
2023-03-26T06:35:36.548Z,0.40
2023-03-26T06:38:04.137Z,0.50
2023-03-26T06:40:32.489Z,0.63
2023-03-26T06:43:09.459Z,0.43
2023-03-26T06:45:38.063Z,0.40
2023-03-26T06:48:05.084Z,0.35
2023-03-26T06:50:32.919Z,0.43
2023-03-26T06:52:59.918Z,0.55
2023-03-26T06:55:27.174Z,0.60
2023-03-26T06:57:55.937Z,0.70
2023-03-26T07:00:22.728Z,1.13
2023-03-26T07:02:49.522Z,0.57
2023-03-26T07:05:16.663Z,0.50
2023-03-26T07:07:46.427Z,0.57
2023-03-26T07:10:14.516Z,0.50
2023-03-26T07:12:42.605Z,0.30
2023-03-26T07:15:10.403Z,0.32
2023-03-26T07:17:37.463Z,0.40
2023-03-26T07:20:06.550Z,0.35
2023-03-26T07:22:33.917Z,0.30
2023-03-26T07:25:01.183Z,0.30
2023-03-26T07:27:31.714Z,0.47
2023-03-26T07:30:13.275Z,0.43
2023-03-26T07:32:48.750Z,0.57
2023-03-26T07:35:21.480Z,0.70
2023-03-26T07:38:16.527Z,0.50
2023-03-26T07:41:11.208Z,0.50
2023-03-26T07:43:37.889Z,0.93
2023-03-26T07:46:10.289Z,1.60
2023-03-26T07:48:47.829Z,0.80
2023-03-26T07:51:15.562Z,0.88
2023-03-26T07:53:42.621Z,1.30
2023-03-26T07:56:16.821Z,1.30
2023-03-26T07:58:52.337Z,0.88
2023-03-26T08:01:19.046Z,1.20
2023-03-26T08:04:23.646Z,0.77
2023-03-26T08:07:02.049Z,1.02
2023-03-26T08:09:42.659Z,0.73
2023-03-26T08:12:09.435Z,0.70
2023-03-26T08:14:58.849Z,0.80
2023-03-26T08:17:42.767Z,0.65
2023-03-26T08:20:22.930Z,0.45
2023-03-26T08:22:57.501Z,0.60
2023-03-26T08:25:33.392Z,0.80
2023-03-26T08:28:37.914Z,0.80
2023-03-26T08:31:05.684Z,0.75
2023-03-26T08:33:35.963Z,0.80
2023-03-26T08:36:04.137Z,0.70
2023-03-26T08:38:30.946Z,0.57
2023-03-26T08:41:23.494Z,0.90
2023-03-26T08:44:08.910Z,0.60
2023-03-26T08:46:46.406Z,0.73
2023-03-26T08:49:53.454Z,1.00
2023-03-26T08:52:38.339Z,0.70
2023-03-26T08:55:23.941Z,0.80
2023-03-26T08:58:05.647Z,0.80
2023-03-26T09:00:41.182Z,0.98
2023-03-26T09:03:10.877Z,0.90
2023-03-26T09:05:40.654Z,0.75
2023-03-26T09:08:16.573Z,0.90
2023-03-26T09:11:18.538Z,0.60
2023-03-26T09:14:16.718Z,0.70
2023-03-26T09:17:15.940Z,0.70
2023-03-26T09:20:07.481Z,0.80
2023-03-26T09:22:59.303Z,0.68
2023-03-26T09:25:48.226Z,0.70
2023-03-26T09:28:36.463Z,0.68
2023-03-26T09:31:45.478Z,0.57
2023-03-26T09:34:44.903Z,1.00
2023-03-26T09:37:56.202Z,0.60
2023-03-26T09:40:44.374Z,0.70
2023-03-26T09:43:20.372Z,0.73
2023-03-26T09:46:02.025Z,0.60
2023-03-26T09:48:49.083Z,0.60
2023-03-26T09:51:33.222Z,0.68
2023-03-26T09:54:30.941Z,0.50
2023-03-26T09:57:04.436Z,0.57
2023-03-26T09:59:31.654Z,0.60
2023-03-26T10:02:04.833Z,0.60
2023-03-26T10:04:40.267Z,0.70
2023-03-26T10:07:13.316Z,0.65
2023-03-26T10:09:50.963Z,0.88
2023-03-26T10:12:24.290Z,0.70
2023-03-26T10:14:54.230Z,0.90
2023-03-26T10:17:40.949Z,0.88
2023-03-26T10:20:26.767Z,0.90
2023-03-26T10:23:23.463Z,0.70
2023-03-26T10:26:07.064Z,0.60
2023-03-26T10:28:46.280Z,0.70
2023-03-26T10:31:25.466Z,0.80
2023-03-26T10:34:28.783Z,0.70
2023-03-26T10:37:16.332Z,0.77
2023-03-26T10:39:49.834Z,0.70
2023-03-26T10:42:25.800Z,0.80
2023-03-26T10:45:11.674Z,0.80
2023-03-26T10:47:47.981Z,0.75
2023-03-26T10:50:30.299Z,0.60
2023-03-26T10:53:00.467Z,0.63
2023-03-26T10:55:53.985Z,0.80
2023-03-26T10:58:21.156Z,0.68
2023-03-26T11:01:11.754Z,0.50
2023-03-26T11:03:54.388Z,0.68
2023-03-26T11:06:41.262Z,0.70
2023-03-26T11:09:14.784Z,0.60
2023-03-26T11:12:27.227Z,0.60
2023-03-26T11:15:11.145Z,0.50
2023-03-26T11:17:52.999Z,0.30
2023-03-26T11:20:42.522Z,0.50
2023-03-26T11:23:16.832Z,0.40
2023-03-26T11:25:49.858Z,0.50
2023-03-26T11:28:35.440Z,0.50
2023-03-26T11:31:29.215Z,0.85
2023-03-26T11:33:58.037Z,0.60
2023-03-26T11:36:27.843Z,0.52
2023-03-26T11:38:56.661Z,0.32
2023-03-26T11:41:25.120Z,0.50
2023-03-26T11:43:55.108Z,0.40
2023-03-26T11:46:23.807Z,0.40
2023-03-26T11:48:57.634Z,0.82
2023-03-26T11:51:35.101Z,0.50
2023-03-26T11:54:03.316Z,0.50
2023-03-26T11:56:31.069Z,0.40
2023-03-26T11:59:01.151Z,0.50
2023-03-26T12:01:32.567Z,0.55
2023-03-26T12:04:05.410Z,0.60
2023-03-26T12:06:33.017Z,0.70
2023-03-26T12:09:00.320Z,0.52
2023-03-26T12:11:29.589Z,0.50
2023-03-26T12:14:00.473Z,0.50
2023-03-26T12:16:27.798Z,0.57
2023-03-26T12:18:59.896Z,0.63
2023-03-26T12:21:27.425Z,0.57
2023-03-26T12:23:56.321Z,0.40
2023-03-26T12:26:46.326Z,0.50
2023-03-26T12:29:17.407Z,0.93
2023-03-26T12:31:58.148Z,0.50
2023-03-26T12:34:36.718Z,0.88
2023-03-26T12:37:05.152Z,0.52
2023-03-26T12:40:08.955Z,0.60
2023-03-26T12:44:49.799Z,0.60
2023-03-26T12:45:17.685Z,0.70
2023-03-26T12:47:56.130Z,0.70
2023-03-26T12:50:39.020Z,0.80
2023-03-26T12:53:19.214Z,0.50
2023-03-26T12:55:49.453Z,0.52
2023-03-26T12:58:25.660Z,0.63
2023-03-26T13:01:03.084Z,0.52
2023-03-26T13:03:41.791Z,0.88
2023-03-26T13:06:13.989Z,0.55
2023-03-26T13:08:50.255Z,0.80
2023-03-26T13:11:17.507Z,0.60
2023-03-26T13:14:00.755Z,0.40
2023-03-26T13:16:37.513Z,0.70
2023-03-26T13:19:24.468Z,0.65
2023-03-26T13:22:03.971Z,0.60
2023-03-26T13:24:38.965Z,0.70
2023-03-26T13:27:11.808Z,0.82
2023-03-26T13:29:56.315Z,0.77
2023-03-26T13:32:36.065Z,1.00
2023-03-26T13:35:22.397Z,0.80
2023-03-26T13:37:56.763Z,1.05
2023-03-26T13:40:33.053Z,0.88
2023-03-26T13:43:11.741Z,0.80
2023-03-26T13:45:54.213Z,0.85
2023-03-26T13:48:27.280Z,0.93
2023-03-26T13:50:58.732Z,0.63
2023-03-26T13:53:27.848Z,1.02
2023-03-26T13:55:58.902Z,0.65
2023-03-26T13:58:34.721Z,0.80
2023-03-26T14:01:07.964Z,1.23
2023-03-26T14:03:54.070Z,0.80
2023-03-26T14:06:24.101Z,1.40
2023-03-26T14:09:02.643Z,0.65
2023-03-26T14:11:38.750Z,0.80
2023-03-26T14:14:12.938Z,0.80
2023-03-26T14:16:44.459Z,0.80
2023-03-26T14:19:14.699Z,1.05
2023-03-26T14:22:20.626Z,0.77
2023-03-26T14:25:08.781Z,0.75
2023-03-26T14:27:45.412Z,0.70
2023-03-26T14:30:18.557Z,0.70
2023-03-26T14:32:53.447Z,0.60
2023-03-26T14:35:29.811Z,0.88
2023-03-26T14:38:08.062Z,0.80
2023-03-26T14:40:44.393Z,0.82
2023-03-26T14:43:14.754Z,0.68
2023-03-26T14:46:02.125Z,0.60
2023-03-26T14:48:38.311Z,0.60
2023-03-26T14:51:29.168Z,0.65
2023-03-26T14:54:00.898Z,0.73
2023-03-26T14:56:28.271Z,1.00
2023-03-26T14:59:14.131Z,0.60
2023-03-26T15:01:52.596Z,1.02
2023-03-26T15:04:46.612Z,0.80
2023-03-26T15:07:13.856Z,1.20
2023-03-26T15:09:59.936Z,0.80
2023-03-26T15:12:33.468Z,1.65
2023-03-26T15:15:04.308Z,0.80
2023-03-26T15:17:37.744Z,0.93
2023-03-26T15:20:26.711Z,0.70
2023-03-26T15:23:12.726Z,0.73
2023-03-26T15:25:46.147Z,0.73
2023-03-26T15:28:28.464Z,1.10
2023-03-26T15:31:21.965Z,1.23
2023-03-26T15:34:07.879Z,2.08
2023-03-26T15:36:44.782Z,1.25
2023-03-26T15:39:58.929Z,0.80
2023-03-26T15:42:39.255Z,0.80
2023-03-26T15:45:25.568Z,1.50
2023-03-26T15:48:10.943Z,1.30
2023-03-26T15:50:38.535Z,1.10
2023-03-26T15:53:23.467Z,0.60
2023-03-26T15:56:00.537Z,0.90
2023-03-26T15:58:28.156Z,1.40
2023-03-26T16:01:03.263Z,2.38
2023-03-26T16:03:43.221Z,6.38
2023-03-26T16:06:30.936Z,3.85
2023-03-26T16:08:58.282Z,2.42
2023-03-26T16:11:44.376Z,2.08
2023-03-26T16:14:34.624Z,1.48
2023-03-26T16:17:05.407Z,0.80
2023-03-26T16:19:48.133Z,0.75
2023-03-26T16:22:43.383Z,1.75
2023-03-26T16:25:28.194Z,1.60
2023-03-26T16:28:25.602Z,0.60
2023-03-26T16:31:10.686Z,0.52
2023-03-26T16:34:17.508Z,0.30
2023-03-26T16:36:46.169Z,0.30
2023-03-26T16:39:13.392Z,0.52
2023-03-26T16:41:40.654Z,0.28
2023-03-26T16:44:13.780Z,0.20
2023-03-26T16:46:50.655Z,0.52
2023-03-26T16:49:20.660Z,0.60
2023-03-26T16:51:56.641Z,0.65
2023-03-26T16:54:42.792Z,0.47
2023-03-26T16:57:23.051Z,0.35
2023-03-26T17:00:07.872Z,0.30
2023-03-26T17:02:56.961Z,0.30
2023-03-26T17:05:30.864Z,0.40
2023-03-26T17:08:03.408Z,0.50
2023-03-26T17:10:59.682Z,0.40
2023-03-26T17:13:38.734Z,0.47
2023-03-26T17:16:22.507Z,0.40
2023-03-26T17:19:17.843Z,0.50
2023-03-26T17:22:09.015Z,0.40
2023-03-26T17:24:52.709Z,0.50
2023-03-26T17:27:34.789Z,0.40
2023-03-26T17:30:22.890Z,0.40
2023-03-26T17:33:03.556Z,0.70
2023-03-26T17:35:36.617Z,0.30
2023-03-26T17:38:04.321Z,0.40
2023-03-26T17:40:43.980Z,0.30
2023-03-26T17:43:12.887Z,0.50
2023-03-26T17:45:43.805Z,0.50
2023-03-26T17:48:21.876Z,0.40
2023-03-26T17:50:57.803Z,0.40
2023-03-26T17:53:31.212Z,0.43
2023-03-26T17:56:03.926Z,0.50
2023-03-26T17:58:44.664Z,0.40
2023-03-26T18:01:38.317Z,0.52
2023-03-26T18:04:11.647Z,0.32
2023-03-26T18:07:11.958Z,0.32
2023-03-26T18:10:06.665Z,0.40
2023-03-26T18:12:50.663Z,0.60
2023-03-26T18:15:39.050Z,0.30
2023-03-26T18:18:16.525Z,0.63
2023-03-26T18:20:47.142Z,0.60
2023-03-26T18:23:35.842Z,0.40
2023-03-26T18:26:16.225Z,0.70
2023-03-26T18:28:49.174Z,0.40
2023-03-26T18:31:22.789Z,0.40
2023-03-26T18:33:54.037Z,0.52
2023-03-26T18:36:24.682Z,0.40
2023-03-26T18:38:56.071Z,0.50
2023-03-26T18:41:40.370Z,0.80
2023-03-26T18:44:14.219Z,0.40
2023-03-26T18:46:42.896Z,0.50
2023-03-26T18:49:15.586Z,0.40
2023-03-26T18:51:56.296Z,0.50
2023-03-26T18:54:25.379Z,0.40
2023-03-26T18:56:52.739Z,0.40
2023-03-26T18:59:30.990Z,0.43
2023-03-26T19:02:04.590Z,0.60
2023-03-26T19:04:36.932Z,0.60
2023-03-26T19:07:10.490Z,0.50
2023-03-26T19:09:38.809Z,0.40
2023-03-26T19:12:19.962Z,0.47
2023-03-26T19:14:55.835Z,0.40
2023-03-26T19:17:26.473Z,0.40
2023-03-26T19:19:55.352Z,0.57
2023-03-26T19:22:25.129Z,0.47
2023-03-26T19:25:00.186Z,0.38
2023-03-26T19:27:27.402Z,0.40
2023-03-26T19:29:54.966Z,0.40
2023-03-26T19:32:32.494Z,0.50
2023-03-26T19:35:02.482Z,0.30
2023-03-26T19:37:30.829Z,0.60
2023-03-26T19:40:19.023Z,0.30
2023-03-26T19:42:46.107Z,0.40
2023-03-26T19:45:22.943Z,0.38
2023-03-26T19:48:03.620Z,0.30
2023-03-26T19:50:43.248Z,0.30
2023-03-26T19:53:16.638Z,0.30
2023-03-26T19:56:13.671Z,0.30
2023-03-26T19:58:42.134Z,0.30
2023-03-26T20:01:27.204Z,0.25
2023-03-26T20:04:00.705Z,0.30
2023-03-26T20:06:42.605Z,0.28
2023-03-26T20:09:12.582Z,0.30
2023-03-26T20:11:40.803Z,0.22
2023-03-26T20:14:16.735Z,0.28
2023-03-26T20:16:45.257Z,0.30
2023-03-26T20:19:14.089Z,0.30
2023-03-26T20:21:41.650Z,0.30
2023-03-26T20:24:17.166Z,0.40
2023-03-26T20:26:45.278Z,0.28
2023-03-26T20:29:13.101Z,0.28
2023-03-26T20:31:44.017Z,0.30
2023-03-26T20:34:18.670Z,0.30
2023-03-26T20:36:46.892Z,0.30
2023-03-26T20:39:13.922Z,0.40
2023-03-26T20:41:45.162Z,0.40
2023-03-26T20:44:15.382Z,0.40
2023-03-26T20:46:43.664Z,0.45
2023-03-26T20:49:11.496Z,0.70
2023-03-26T20:51:38.829Z,0.68
2023-03-26T20:54:08.975Z,0.60
2023-03-26T20:56:37.674Z,0.60
2023-03-26T20:59:11.178Z,0.47
2023-03-26T21:01:38.579Z,0.50
2023-03-26T21:04:06.417Z,0.40
2023-03-26T21:06:33.349Z,0.40
2023-03-26T21:09:00.562Z,0.50
2023-03-26T21:12:03.899Z,0.60
2023-03-26T21:14:43.537Z,0.40
2023-03-26T21:17:20.723Z,0.40
2023-03-26T21:19:48.340Z,0.45
2023-03-26T21:22:40.470Z,0.50
2023-03-26T21:25:21.040Z,0.70
2023-03-26T21:28:08.360Z,0.73
2023-03-26T21:30:35.706Z,0.50
2023-03-26T21:33:05.161Z,0.70
2023-03-26T21:35:32.474Z,0.50
2023-03-26T21:37:59.556Z,0.50
2023-03-26T21:40:26.538Z,0.60
2023-03-26T21:42:54.768Z,0.60
2023-03-26T21:45:22.941Z,0.60
2023-03-26T21:47:50.820Z,0.50
2023-03-26T21:50:20.956Z,0.60
2023-03-26T21:52:49.016Z,0.80
2023-03-26T21:55:17.531Z,0.60
2023-03-26T21:58:05.743Z,0.60
2023-03-26T22:00:45.777Z,0.70
2023-03-26T22:03:30.954Z,0.88
2023-03-26T22:06:11.926Z,0.70
2023-03-26T22:08:41.038Z,0.80
2023-03-26T22:11:10.194Z,0.55
2023-03-26T22:13:38.622Z,0.70
2023-03-26T22:16:07.286Z,0.70
2023-03-26T22:18:34.693Z,0.90
2023-03-26T22:21:01.526Z,0.80
2023-03-26T22:23:34.348Z,0.70
2023-03-26T22:26:01.658Z,0.98
2023-03-26T22:28:29.248Z,0.60
2023-03-26T22:30:56.325Z,0.85
2023-03-26T22:33:23.321Z,0.88
2023-03-26T22:35:50.180Z,0.77
2023-03-26T22:38:17.154Z,1.08
2023-03-26T22:40:43.987Z,1.30
2023-03-26T22:43:11.524Z,1.38
2023-03-26T22:45:38.292Z,1.40
2023-03-26T22:48:05.213Z,2.05
2023-03-26T22:50:32.854Z,1.90
2023-03-26T22:52:59.823Z,2.05
2023-03-26T22:55:28.239Z,1.70
2023-03-26T22:57:56.339Z,2.10
2023-03-26T23:00:23.306Z,2.30
2023-03-26T23:02:50.218Z,1.95
2023-03-26T23:05:17.825Z,1.90
2023-03-26T23:07:46.123Z,2.25
2023-03-26T23:10:13.526Z,2.10
2023-03-26T23:12:41.542Z,2.20
2023-03-26T23:15:09.745Z,2.35
2023-03-26T23:17:37.672Z,2.17
2023-03-26T23:20:12.545Z,2.22
2023-03-26T23:22:40.007Z,2.55
2023-03-26T23:25:07.817Z,2.30
2023-03-26T23:27:35.628Z,1.90
2023-03-26T23:30:04.404Z,2.55
2023-03-26T23:32:31.532Z,2.00
2023-03-26T23:34:58.393Z,2.33
2023-03-26T23:37:25.324Z,2.35
2023-03-26T23:39:52.382Z,3.30
2023-03-26T23:42:29.252Z,3.42
2023-03-26T23:44:57.407Z,2.38
2023-03-26T23:47:24.612Z,2.80
2023-03-26T23:49:51.551Z,2.20
2023-03-26T23:52:18.800Z,2.38
2023-03-26T23:54:45.756Z,2.40
2023-03-26T23:57:12.879Z,2.58
2023-03-26T23:59:41.515Z,2.10
